sensor_id;sensor_type;location;lat;lon;timestamp;P1;durP1;ratioP1;P2;durP2;ratioP2
24619;SDS011;12763;55.802;37.404;2023-07-02T00:01:46;11.23;;;8.32;;
24619;SDS011;12763;55.802;37.404;2023-07-02T00:04:13;13.30;;;8.35;;
24619;SDS011;12763;55.802;37.404;2023-07-02T00:06:45;11.05;;;8.23;;
24619;SDS011;12763;55.802;37.404;2023-07-02T00:09:12;12.20;;;8.30;;
24619;SDS011;12763;55.802;37.404;2023-07-02T00:11:39;15.63;;;8.82;;
24619;SDS011;12763;55.802;37.404;2023-07-02T00:14:07;10.60;;;8.00;;
24619;SDS011;12763;55.802;37.404;2023-07-02T00:16:35;11.45;;;7.75;;
24619;SDS011;12763;55.802;37.404;2023-07-02T00:19:04;11.65;;;8.25;;
24619;SDS011;12763;55.802;37.404;2023-07-02T00:21:31;10.02;;;7.50;;
24619;SDS011;12763;55.802;37.404;2023-07-02T00:23:59;13.60;;;8.57;;
24619;SDS011;12763;55.802;37.404;2023-07-02T00:26:26;11.00;;;8.57;;
24619;SDS011;12763;55.802;37.404;2023-07-02T00:28:53;10.38;;;7.78;;
24619;SDS011;12763;55.802;37.404;2023-07-02T00:31:20;14.43;;;8.00;;
24619;SDS011;12763;55.802;37.404;2023-07-02T00:33:46;13.45;;;8.70;;
24619;SDS011;12763;55.802;37.404;2023-07-02T00:36:13;13.50;;;8.35;;
24619;SDS011;12763;55.802;37.404;2023-07-02T00:38:42;11.73;;;7.97;;
24619;SDS011;12763;55.802;37.404;2023-07-02T00:41:10;11.80;;;8.32;;
24619;SDS011;12763;55.802;37.404;2023-07-02T00:43:37;14.52;;;8.35;;
24619;SDS011;12763;55.802;37.404;2023-07-02T00:46:14;12.48;;;8.02;;
24619;SDS011;12763;55.802;37.404;2023-07-02T00:48:51;15.02;;;8.10;;
24619;SDS011;12763;55.802;37.404;2023-07-02T00:51:19;10.85;;;7.90;;
24619;SDS011;12763;55.802;37.404;2023-07-02T00:53:48;16.25;;;8.52;;
24619;SDS011;12763;55.802;37.404;2023-07-02T00:56:15;17.58;;;7.85;;
24619;SDS011;12763;55.802;37.404;2023-07-02T00:58:42;10.20;;;7.47;;
24619;SDS011;12763;55.802;37.404;2023-07-02T01:01:15;12.88;;;8.68;;
24619;SDS011;12763;55.802;37.404;2023-07-02T01:03:52;16.70;;;8.15;;
24619;SDS011;12763;55.802;37.404;2023-07-02T01:06:31;9.73;;;7.45;;
24619;SDS011;12763;55.802;37.404;2023-07-02T01:09:03;10.55;;;7.55;;
24619;SDS011;12763;55.802;37.404;2023-07-02T01:11:31;16.50;;;9.48;;
24619;SDS011;12763;55.802;37.404;2023-07-02T01:14:00;15.25;;;7.88;;
24619;SDS011;12763;55.802;37.404;2023-07-02T01:16:29;12.60;;;8.38;;
24619;SDS011;12763;55.802;37.404;2023-07-02T01:18:59;12.73;;;8.57;;
24619;SDS011;12763;55.802;37.404;2023-07-02T01:21:32;16.30;;;8.73;;
24619;SDS011;12763;55.802;37.404;2023-07-02T01:23:59;16.77;;;9.15;;
24619;SDS011;12763;55.802;37.404;2023-07-02T01:26:30;12.40;;;8.13;;
24619;SDS011;12763;55.802;37.404;2023-07-02T01:29:12;11.90;;;7.85;;
24619;SDS011;12763;55.802;37.404;2023-07-02T01:31:41;14.32;;;7.40;;
24619;SDS011;12763;55.802;37.404;2023-07-02T01:34:07;12.93;;;8.13;;
24619;SDS011;12763;55.802;37.404;2023-07-02T01:36:36;12.88;;;8.18;;
24619;SDS011;12763;55.802;37.404;2023-07-02T01:39:02;11.80;;;7.38;;
24619;SDS011;12763;55.802;37.404;2023-07-02T01:41:29;10.93;;;7.82;;
24619;SDS011;12763;55.802;37.404;2023-07-02T01:43:57;12.43;;;7.35;;
24619;SDS011;12763;55.802;37.404;2023-07-02T01:46:23;11.45;;;8.73;;
24619;SDS011;12763;55.802;37.404;2023-07-02T01:48:49;14.65;;;8.05;;
24619;SDS011;12763;55.802;37.404;2023-07-02T01:51:15;11.63;;;8.23;;
24619;SDS011;12763;55.802;37.404;2023-07-02T01:53:40;10.88;;;8.13;;
24619;SDS011;12763;55.802;37.404;2023-07-02T01:56:09;15.65;;;7.97;;
24619;SDS011;12763;55.802;37.404;2023-07-02T01:58:35;12.32;;;8.23;;
24619;SDS011;12763;55.802;37.404;2023-07-02T02:01:01;13.10;;;8.13;;
24619;SDS011;12763;55.802;37.404;2023-07-02T02:03:26;11.25;;;8.02;;
24619;SDS011;12763;55.802;37.404;2023-07-02T02:05:52;12.32;;;7.97;;
24619;SDS011;12763;55.802;37.404;2023-07-02T02:08:18;17.30;;;8.52;;
24619;SDS011;12763;55.802;37.404;2023-07-02T02:10:44;11.13;;;7.93;;
24619;SDS011;12763;55.802;37.404;2023-07-02T02:13:10;10.80;;;7.72;;
24619;SDS011;12763;55.802;37.404;2023-07-02T02:15:36;15.90;;;7.97;;
24619;SDS011;12763;55.802;37.404;2023-07-02T02:18:02;14.40;;;8.05;;
24619;SDS011;12763;55.802;37.404;2023-07-02T02:20:28;11.65;;;8.10;;
24619;SDS011;12763;55.802;37.404;2023-07-02T02:22:54;11.65;;;7.78;;
24619;SDS011;12763;55.802;37.404;2023-07-02T02:25:20;12.15;;;8.43;;
24619;SDS011;12763;55.802;37.404;2023-07-02T02:27:46;11.77;;;7.72;;
24619;SDS011;12763;55.802;37.404;2023-07-02T02:30:12;13.60;;;7.95;;
24619;SDS011;12763;55.802;37.404;2023-07-02T02:32:38;15.15;;;8.20;;
24619;SDS011;12763;55.802;37.404;2023-07-02T02:35:07;11.75;;;7.25;;
24619;SDS011;12763;55.802;37.404;2023-07-02T02:37:34;11.98;;;7.55;;
24619;SDS011;12763;55.802;37.404;2023-07-02T02:40:01;15.00;;;7.55;;
24619;SDS011;12763;55.802;37.404;2023-07-02T02:42:29;16.00;;;8.43;;
24619;SDS011;12763;55.802;37.404;2023-07-02T02:44:55;14.13;;;8.27;;
24619;SDS011;12763;55.802;37.404;2023-07-02T02:47:21;11.27;;;7.72;;
24619;SDS011;12763;55.802;37.404;2023-07-02T02:49:47;13.80;;;8.23;;
24619;SDS011;12763;55.802;37.404;2023-07-02T02:52:12;9.85;;;7.07;;
24619;SDS011;12763;55.802;37.404;2023-07-02T02:54:39;12.93;;;7.65;;
24619;SDS011;12763;55.802;37.404;2023-07-02T02:57:05;14.57;;;7.25;;
24619;SDS011;12763;55.802;37.404;2023-07-02T02:59:31;10.18;;;7.97;;
24619;SDS011;12763;55.802;37.404;2023-07-02T03:01:57;10.65;;;7.53;;
24619;SDS011;12763;55.802;37.404;2023-07-02T03:04:23;11.57;;;7.32;;
24619;SDS011;12763;55.802;37.404;2023-07-02T03:06:51;13.75;;;7.45;;
24619;SDS011;12763;55.802;37.404;2023-07-02T03:09:18;10.90;;;7.15;;
24619;SDS011;12763;55.802;37.404;2023-07-02T03:11:46;12.18;;;7.63;;
24619;SDS011;12763;55.802;37.404;2023-07-02T03:14:12;9.60;;;6.57;;
24619;SDS011;12763;55.802;37.404;2023-07-02T03:16:38;11.75;;;7.15;;
24619;SDS011;12763;55.802;37.404;2023-07-02T03:19:04;9.52;;;7.03;;
24619;SDS011;12763;55.802;37.404;2023-07-02T03:21:29;11.68;;;5.57;;
24619;SDS011;12763;55.802;37.404;2023-07-02T03:23:55;8.77;;;6.53;;
24619;SDS011;12763;55.802;37.404;2023-07-02T03:26:21;10.23;;;6.70;;
24619;SDS011;12763;55.802;37.404;2023-07-02T03:28:48;12.13;;;7.70;;
24619;SDS011;12763;55.802;37.404;2023-07-02T03:31:14;13.80;;;7.25;;
24619;SDS011;12763;55.802;37.404;2023-07-02T03:33:40;10.73;;;6.93;;
24619;SDS011;12763;55.802;37.404;2023-07-02T03:36:06;9.35;;;6.95;;
24619;SDS011;12763;55.802;37.404;2023-07-02T03:38:32;12.60;;;6.57;;
24619;SDS011;12763;55.802;37.404;2023-07-02T03:40:58;12.15;;;6.85;;
24619;SDS011;12763;55.802;37.404;2023-07-02T03:43:24;9.98;;;6.53;;
24619;SDS011;12763;55.802;37.404;2023-07-02T03:45:51;9.02;;;6.28;;
24619;SDS011;12763;55.802;37.404;2023-07-02T03:48:17;11.55;;;6.20;;
24619;SDS011;12763;55.802;37.404;2023-07-02T03:50:43;10.10;;;6.43;;
24619;SDS011;12763;55.802;37.404;2023-07-02T03:53:09;8.40;;;6.60;;
24619;SDS011;12763;55.802;37.404;2023-07-02T03:55:35;8.70;;;5.95;;
24619;SDS011;12763;55.802;37.404;2023-07-02T03:58:02;10.20;;;6.20;;
24619;SDS011;12763;55.802;37.404;2023-07-02T04:00:28;10.80;;;5.90;;
24619;SDS011;12763;55.802;37.404;2023-07-02T04:02:53;12.02;;;6.57;;
24619;SDS011;12763;55.802;37.404;2023-07-02T04:05:19;10.43;;;6.13;;
24619;SDS011;12763;55.802;37.404;2023-07-02T04:07:48;8.38;;;6.43;;
24619;SDS011;12763;55.802;37.404;2023-07-02T04:10:14;10.10;;;5.80;;
24619;SDS011;12763;55.802;37.404;2023-07-02T04:12:40;8.52;;;6.07;;
24619;SDS011;12763;55.802;37.404;2023-07-02T04:15:06;8.75;;;6.78;;
24619;SDS011;12763;55.802;37.404;2023-07-02T04:17:33;9.20;;;5.60;;
24619;SDS011;12763;55.802;37.404;2023-07-02T04:19:59;8.45;;;5.93;;
24619;SDS011;12763;55.802;37.404;2023-07-02T04:22:29;10.20;;;6.40;;
24619;SDS011;12763;55.802;37.404;2023-07-02T04:24:55;8.85;;;6.50;;
24619;SDS011;12763;55.802;37.404;2023-07-02T04:27:21;8.93;;;6.20;;
24619;SDS011;12763;55.802;37.404;2023-07-02T04:29:47;11.27;;;6.95;;
24619;SDS011;12763;55.802;37.404;2023-07-02T04:32:13;9.30;;;6.32;;
24619;SDS011;12763;55.802;37.404;2023-07-02T04:34:39;9.88;;;5.97;;
24619;SDS011;12763;55.802;37.404;2023-07-02T04:37:05;11.80;;;6.07;;
24619;SDS011;12763;55.802;37.404;2023-07-02T04:39:31;10.20;;;6.25;;
24619;SDS011;12763;55.802;37.404;2023-07-02T04:41:57;8.98;;;6.13;;
24619;SDS011;12763;55.802;37.404;2023-07-02T04:44:23;10.05;;;6.03;;
24619;SDS011;12763;55.802;37.404;2023-07-02T04:46:58;11.73;;;6.03;;
24619;SDS011;12763;55.802;37.404;2023-07-02T04:49:25;8.52;;;5.40;;
24619;SDS011;12763;55.802;37.404;2023-07-02T04:51:51;9.18;;;6.40;;
24619;SDS011;12763;55.802;37.404;2023-07-02T04:54:20;8.73;;;5.60;;
24619;SDS011;12763;55.802;37.404;2023-07-02T04:56:47;9.10;;;6.10;;
24619;SDS011;12763;55.802;37.404;2023-07-02T04:59:13;9.45;;;6.03;;
24619;SDS011;12763;55.802;37.404;2023-07-02T05:01:40;8.57;;;6.10;;
24619;SDS011;12763;55.802;37.404;2023-07-02T05:04:06;9.85;;;5.63;;
24619;SDS011;12763;55.802;37.404;2023-07-02T05:06:31;9.63;;;5.80;;
24619;SDS011;12763;55.802;37.404;2023-07-02T05:08:57;9.40;;;6.05;;
24619;SDS011;12763;55.802;37.404;2023-07-02T05:11:23;8.43;;;5.93;;
24619;SDS011;12763;55.802;37.404;2023-07-02T05:13:49;10.35;;;5.97;;
24619;SDS011;12763;55.802;37.404;2023-07-02T05:16:15;9.50;;;5.55;;
24619;SDS011;12763;55.802;37.404;2023-07-02T05:18:41;9.02;;;5.40;;
24619;SDS011;12763;55.802;37.404;2023-07-02T05:21:06;10.45;;;5.57;;
24619;SDS011;12763;55.802;37.404;2023-07-02T05:23:32;9.20;;;5.45;;
24619;SDS011;12763;55.802;37.404;2023-07-02T05:25:58;10.60;;;5.35;;
24619;SDS011;12763;55.802;37.404;2023-07-02T05:28:24;15.75;;;5.60;;
24619;SDS011;12763;55.802;37.404;2023-07-02T05:30:50;9.65;;;5.55;;
24619;SDS011;12763;55.802;37.404;2023-07-02T05:33:16;12.75;;;5.57;;
24619;SDS011;12763;55.802;37.404;2023-07-02T05:35:42;8.38;;;5.53;;
24619;SDS011;12763;55.802;37.404;2023-07-02T05:38:08;9.82;;;6.40;;
24619;SDS011;12763;55.802;37.404;2023-07-02T05:40:34;8.88;;;5.43;;
24619;SDS011;12763;55.802;37.404;2023-07-02T05:43:00;10.68;;;5.38;;
24619;SDS011;12763;55.802;37.404;2023-07-02T05:45:26;9.57;;;6.03;;
24619;SDS011;12763;55.802;37.404;2023-07-02T05:47:53;13.27;;;5.25;;
24619;SDS011;12763;55.802;37.404;2023-07-02T05:50:18;6.05;;;4.75;;
24619;SDS011;12763;55.802;37.404;2023-07-02T05:52:44;10.13;;;6.28;;
24619;SDS011;12763;55.802;37.404;2023-07-02T05:55:10;10.98;;;5.57;;
24619;SDS011;12763;55.802;37.404;2023-07-02T05:57:37;8.93;;;5.30;;
24619;SDS011;12763;55.802;37.404;2023-07-02T06:00:04;12.52;;;5.05;;
24619;SDS011;12763;55.802;37.404;2023-07-02T06:02:38;8.65;;;4.82;;
24619;SDS011;12763;55.802;37.404;2023-07-02T06:05:04;8.00;;;5.15;;
24619;SDS011;12763;55.802;37.404;2023-07-02T06:07:31;9.50;;;5.30;;
24619;SDS011;12763;55.802;37.404;2023-07-02T06:09:57;5.85;;;4.60;;
24619;SDS011;12763;55.802;37.404;2023-07-02T06:12:22;8.77;;;5.75;;
24619;SDS011;12763;55.802;37.404;2023-07-02T06:14:48;10.02;;;5.43;;
24619;SDS011;12763;55.802;37.404;2023-07-02T06:17:14;10.75;;;5.43;;
24619;SDS011;12763;55.802;37.404;2023-07-02T06:19:40;12.32;;;6.13;;
24619;SDS011;12763;55.802;37.404;2023-07-02T06:22:06;14.80;;;5.40;;
24619;SDS011;12763;55.802;37.404;2023-07-02T06:24:32;10.05;;;5.18;;
24619;SDS011;12763;55.802;37.404;2023-07-02T06:26:58;8.35;;;5.22;;
24619;SDS011;12763;55.802;37.404;2023-07-02T06:29:24;11.13;;;5.00;;
24619;SDS011;12763;55.802;37.404;2023-07-02T06:31:50;14.93;;;5.00;;
24619;SDS011;12763;55.802;37.404;2023-07-02T06:34:16;9.60;;;5.20;;
24619;SDS011;12763;55.802;37.404;2023-07-02T06:36:42;10.98;;;5.65;;
24619;SDS011;12763;55.802;37.404;2023-07-02T06:39:08;9.15;;;4.65;;
24619;SDS011;12763;55.802;37.404;2023-07-02T06:41:35;8.23;;;5.00;;
24619;SDS011;12763;55.802;37.404;2023-07-02T06:44:01;10.75;;;5.07;;
24619;SDS011;12763;55.802;37.404;2023-07-02T06:46:28;12.38;;;4.97;;
24619;SDS011;12763;55.802;37.404;2023-07-02T06:48:55;7.20;;;5.20;;
24619;SDS011;12763;55.802;37.404;2023-07-02T06:51:21;8.55;;;4.95;;
24619;SDS011;12763;55.802;37.404;2023-07-02T06:53:47;8.13;;;4.90;;
24619;SDS011;12763;55.802;37.404;2023-07-02T06:56:13;6.20;;;4.60;;
24619;SDS011;12763;55.802;37.404;2023-07-02T06:58:41;12.05;;;5.25;;
24619;SDS011;12763;55.802;37.404;2023-07-02T07:01:08;8.45;;;5.28;;
24619;SDS011;12763;55.802;37.404;2023-07-02T07:03:34;7.03;;;4.30;;
24619;SDS011;12763;55.802;37.404;2023-07-02T07:06:01;7.32;;;5.10;;
24619;SDS011;12763;55.802;37.404;2023-07-02T07:08:27;7.90;;;4.35;;
24619;SDS011;12763;55.802;37.404;2023-07-02T07:10:53;9.55;;;4.50;;
24619;SDS011;12763;55.802;37.404;2023-07-02T07:13:19;7.22;;;4.38;;
24619;SDS011;12763;55.802;37.404;2023-07-02T07:15:45;7.75;;;4.13;;
24619;SDS011;12763;55.802;37.404;2023-07-02T07:18:11;7.22;;;4.38;;
24619;SDS011;12763;55.802;37.404;2023-07-02T07:20:38;8.68;;;4.45;;
24619;SDS011;12763;55.802;37.404;2023-07-02T07:23:05;6.80;;;4.63;;
24619;SDS011;12763;55.802;37.404;2023-07-02T07:25:31;11.85;;;4.95;;
24619;SDS011;12763;55.802;37.404;2023-07-02T07:27:57;13.25;;;4.60;;
24619;SDS011;12763;55.802;37.404;2023-07-02T07:30:25;8.45;;;4.03;;
24619;SDS011;12763;55.802;37.404;2023-07-02T07:32:52;8.15;;;4.30;;
24619;SDS011;12763;55.802;37.404;2023-07-02T07:35:20;9.45;;;3.90;;
24619;SDS011;12763;55.802;37.404;2023-07-02T07:37:47;4.70;;;3.42;;
24619;SDS011;12763;55.802;37.404;2023-07-02T07:40:13;6.43;;;4.10;;
24619;SDS011;12763;55.802;37.404;2023-07-02T07:42:42;7.20;;;3.60;;
24619;SDS011;12763;55.802;37.404;2023-07-02T07:45:09;6.28;;;4.07;;
24619;SDS011;12763;55.802;37.404;2023-07-02T07:47:36;6.10;;;3.80;;
24619;SDS011;12763;55.802;37.404;2023-07-02T07:50:02;10.13;;;4.45;;
24619;SDS011;12763;55.802;37.404;2023-07-02T07:52:29;5.55;;;3.65;;
24619;SDS011;12763;55.802;37.404;2023-07-02T07:54:55;9.63;;;3.67;;
24619;SDS011;12763;55.802;37.404;2023-07-02T07:57:22;8.40;;;3.58;;
24619;SDS011;12763;55.802;37.404;2023-07-02T07:59:48;10.18;;;3.75;;
24619;SDS011;12763;55.802;37.404;2023-07-02T08:02:13;9.45;;;3.55;;
24619;SDS011;12763;55.802;37.404;2023-07-02T08:04:39;8.68;;;3.13;;
24619;SDS011;12763;55.802;37.404;2023-07-02T08:07:05;9.68;;;3.35;;
24619;SDS011;12763;55.802;37.404;2023-07-02T08:09:34;13.65;;;3.78;;
24619;SDS011;12763;55.802;37.404;2023-07-02T08:12:00;8.48;;;3.78;;
24619;SDS011;12763;55.802;37.404;2023-07-02T08:14:26;17.20;;;4.18;;
24619;SDS011;12763;55.802;37.404;2023-07-02T08:16:51;7.75;;;4.07;;
24619;SDS011;12763;55.802;37.404;2023-07-02T08:19:17;10.38;;;3.95;;
24619;SDS011;12763;55.802;37.404;2023-07-02T08:21:43;8.55;;;3.63;;
24619;SDS011;12763;55.802;37.404;2023-07-02T08:24:09;7.82;;;3.90;;
24619;SDS011;12763;55.802;37.404;2023-07-02T08:26:34;8.80;;;4.30;;
24619;SDS011;12763;55.802;37.404;2023-07-02T08:29:00;7.30;;;3.85;;
24619;SDS011;12763;55.802;37.404;2023-07-02T08:31:26;8.15;;;3.70;;
24619;SDS011;12763;55.802;37.404;2023-07-02T08:33:52;8.25;;;3.42;;
24619;SDS011;12763;55.802;37.404;2023-07-02T08:36:18;8.05;;;4.18;;
24619;SDS011;12763;55.802;37.404;2023-07-02T08:38:44;9.13;;;4.30;;
24619;SDS011;12763;55.802;37.404;2023-07-02T08:41:10;8.55;;;3.78;;
24619;SDS011;12763;55.802;37.404;2023-07-02T08:43:35;7.63;;;4.20;;
24619;SDS011;12763;55.802;37.404;2023-07-02T08:46:01;5.93;;;3.75;;
24619;SDS011;12763;55.802;37.404;2023-07-02T08:48:28;12.95;;;4.28;;
24619;SDS011;12763;55.802;37.404;2023-07-02T08:50:55;5.13;;;3.63;;
24619;SDS011;12763;55.802;37.404;2023-07-02T08:53:22;8.75;;;3.78;;
24619;SDS011;12763;55.802;37.404;2023-07-02T08:55:55;5.55;;;3.88;;
24619;SDS011;12763;55.802;37.404;2023-07-02T08:58:21;7.60;;;3.28;;
24619;SDS011;12763;55.802;37.404;2023-07-02T09:03:33;7.78;;;3.63;;
24619;SDS011;12763;55.802;37.404;2023-07-02T09:05:59;8.05;;;3.53;;
24619;SDS011;12763;55.802;37.404;2023-07-02T09:08:25;7.55;;;3.67;;
24619;SDS011;12763;55.802;37.404;2023-07-02T09:10:51;7.57;;;3.90;;
24619;SDS011;12763;55.802;37.404;2023-07-02T09:13:17;6.95;;;3.65;;
24619;SDS011;12763;55.802;37.404;2023-07-02T09:15:43;6.00;;;3.47;;
24619;SDS011;12763;55.802;37.404;2023-07-02T09:18:19;6.30;;;3.60;;
24619;SDS011;12763;55.802;37.404;2023-07-02T09:20:46;12.13;;;4.25;;
24619;SDS011;12763;55.802;37.404;2023-07-02T09:23:16;11.95;;;3.72;;
24619;SDS011;12763;55.802;37.404;2023-07-02T09:25:42;9.98;;;3.58;;
24619;SDS011;12763;55.802;37.404;2023-07-02T09:28:17;8.07;;;3.72;;
24619;SDS011;12763;55.802;37.404;2023-07-02T09:30:54;6.28;;;3.78;;
24619;SDS011;12763;55.802;37.404;2023-07-02T09:33:25;12.13;;;3.83;;
24619;SDS011;12763;55.802;37.404;2023-07-02T09:35:53;5.53;;;3.40;;
24619;SDS011;12763;55.802;37.404;2023-07-02T09:38:20;8.45;;;4.22;;
24619;SDS011;12763;55.802;37.404;2023-07-02T09:40:47;5.45;;;3.88;;
24619;SDS011;12763;55.802;37.404;2023-07-02T09:43:15;10.02;;;3.97;;
24619;SDS011;12763;55.802;37.404;2023-07-02T09:45:42;6.70;;;3.50;;
24619;SDS011;12763;55.802;37.404;2023-07-02T09:48:10;10.45;;;4.30;;
24619;SDS011;12763;55.802;37.404;2023-07-02T09:50:39;8.25;;;4.32;;
24619;SDS011;12763;55.802;37.404;2023-07-02T09:53:06;7.13;;;3.67;;
24619;SDS011;12763;55.802;37.404;2023-07-02T09:55:32;9.35;;;4.40;;
24619;SDS011;12763;55.802;37.404;2023-07-02T09:57:59;7.03;;;3.67;;
24619;SDS011;12763;55.802;37.404;2023-07-02T10:00:24;8.45;;;4.05;;
24619;SDS011;12763;55.802;37.404;2023-07-02T10:02:50;5.88;;;3.30;;
24619;SDS011;12763;55.802;37.404;2023-07-02T10:05:26;7.30;;;3.90;;
24619;SDS011;12763;55.802;37.404;2023-07-02T10:07:52;8.40;;;3.90;;
24619;SDS011;12763;55.802;37.404;2023-07-02T10:10:51;7.88;;;3.22;;
24619;SDS011;12763;55.802;37.404;2023-07-02T10:13:10;7.38;;;3.40;;
24619;SDS011;12763;55.802;37.404;2023-07-02T10:15:36;5.90;;;3.58;;
24619;SDS011;12763;55.802;37.404;2023-07-02T10:18:03;7.63;;;3.47;;
24619;SDS011;12763;55.802;37.404;2023-07-02T10:20:33;5.35;;;3.10;;
24619;SDS011;12763;55.802;37.404;2023-07-02T10:23:00;6.78;;;3.70;;
24619;SDS011;12763;55.802;37.404;2023-07-02T10:25:28;7.30;;;3.70;;
24619;SDS011;12763;55.802;37.404;2023-07-02T10:28:00;6.65;;;4.15;;
24619;SDS011;12763;55.802;37.404;2023-07-02T10:30:30;7.95;;;4.03;;
24619;SDS011;12763;55.802;37.404;2023-07-02T10:33:11;5.60;;;3.25;;
24619;SDS011;12763;55.802;37.404;2023-07-02T10:35:38;5.50;;;3.33;;
24619;SDS011;12763;55.802;37.404;2023-07-02T10:38:07;4.40;;;3.00;;
24619;SDS011;12763;55.802;37.404;2023-07-02T10:40:40;6.57;;;3.28;;
24619;SDS011;12763;55.802;37.404;2023-07-02T10:43:07;11.18;;;3.63;;
24619;SDS011;12763;55.802;37.404;2023-07-02T10:45:34;5.50;;;2.88;;
24619;SDS011;12763;55.802;37.404;2023-07-02T10:48:04;3.83;;;2.85;;
24619;SDS011;12763;55.802;37.404;2023-07-02T10:50:34;5.72;;;3.33;;
24619;SDS011;12763;55.802;37.404;2023-07-02T10:53:00;4.30;;;3.15;;
24619;SDS011;12763;55.802;37.404;2023-07-02T10:55:26;5.38;;;2.80;;
24619;SDS011;12763;55.802;37.404;2023-07-02T10:58:06;7.55;;;3.30;;
24619;SDS011;12763;55.802;37.404;2023-07-02T11:00:33;5.07;;;3.20;;
24619;SDS011;12763;55.802;37.404;2023-07-02T11:03:15;6.13;;;3.22;;
24619;SDS011;12763;55.802;37.404;2023-07-02T11:05:45;5.45;;;3.65;;
24619;SDS011;12763;55.802;37.404;2023-07-02T11:08:12;6.68;;;3.22;;
24619;SDS011;12763;55.802;37.404;2023-07-02T11:10:38;6.38;;;2.60;;
24619;SDS011;12763;55.802;37.404;2023-07-02T11:13:13;6.03;;;3.03;;
24619;SDS011;12763;55.802;37.404;2023-07-02T11:15:40;3.78;;;3.00;;
24619;SDS011;12763;55.802;37.404;2023-07-02T11:18:10;6.03;;;3.25;;
24619;SDS011;12763;55.802;37.404;2023-07-02T11:20:44;3.83;;;2.90;;
24619;SDS011;12763;55.802;37.404;2023-07-02T11:23:24;6.13;;;3.10;;
24619;SDS011;12763;55.802;37.404;2023-07-02T11:26:00;5.82;;;3.17;;
24619;SDS011;12763;55.802;37.404;2023-07-02T11:28:28;4.70;;;2.95;;
24619;SDS011;12763;55.802;37.404;2023-07-02T11:30:57;5.20;;;2.90;;
24619;SDS011;12763;55.802;37.404;2023-07-02T11:36:03;8.63;;;3.45;;
24619;SDS011;12763;55.802;37.404;2023-07-02T11:38:29;4.65;;;2.95;;
24619;SDS011;12763;55.802;37.404;2023-07-02T11:40:55;8.48;;;3.10;;
24619;SDS011;12763;55.802;37.404;2023-07-02T11:43:21;7.32;;;3.40;;
24619;SDS011;12763;55.802;37.404;2023-07-02T11:45:47;7.38;;;3.00;;
24619;SDS011;12763;55.802;37.404;2023-07-02T11:48:13;7.22;;;3.17;;
24619;SDS011;12763;55.802;37.404;2023-07-02T11:50:39;5.50;;;3.33;;
24619;SDS011;12763;55.802;37.404;2023-07-02T11:53:05;5.35;;;3.13;;
24619;SDS011;12763;55.802;37.404;2023-07-02T11:55:30;4.85;;;3.10;;
24619;SDS011;12763;55.802;37.404;2023-07-02T11:57:56;6.05;;;2.65;;
24619;SDS011;12763;55.802;37.404;2023-07-02T12:00:22;7.90;;;3.60;;
24619;SDS011;12763;55.802;37.404;2023-07-02T12:02:48;4.20;;;2.83;;
24619;SDS011;12763;55.802;37.404;2023-07-02T12:05:14;4.68;;;3.40;;
24619;SDS011;12763;55.802;37.404;2023-07-02T12:07:40;4.75;;;2.80;;
24619;SDS011;12763;55.802;37.404;2023-07-02T12:10:07;8.18;;;3.10;;
24619;SDS011;12763;55.802;37.404;2023-07-02T12:12:33;7.57;;;3.38;;
24619;SDS011;12763;55.802;37.404;2023-07-02T12:14:59;4.85;;;3.30;;
24619;SDS011;12763;55.802;37.404;2023-07-02T12:17:25;9.13;;;3.25;;
24619;SDS011;12763;55.802;37.404;2023-07-02T12:19:51;6.07;;;3.55;;
24619;SDS011;12763;55.802;37.404;2023-07-02T12:22:16;9.82;;;3.65;;
24619;SDS011;12763;55.802;37.404;2023-07-02T12:24:43;6.88;;;3.50;;
24619;SDS011;12763;55.802;37.404;2023-07-02T12:27:09;5.45;;;3.20;;
24619;SDS011;12763;55.802;37.404;2023-07-02T12:29:38;9.43;;;3.38;;
24619;SDS011;12763;55.802;37.404;2023-07-02T12:32:04;10.57;;;3.50;;
24619;SDS011;12763;55.802;37.404;2023-07-02T12:34:31;6.97;;;3.28;;
24619;SDS011;12763;55.802;37.404;2023-07-02T12:36:57;5.65;;;3.25;;
24619;SDS011;12763;55.802;37.404;2023-07-02T12:39:23;10.68;;;3.38;;
24619;SDS011;12763;55.802;37.404;2023-07-02T12:41:49;7.38;;;3.72;;
24619;SDS011;12763;55.802;37.404;2023-07-02T12:44:14;5.63;;;3.05;;
24619;SDS011;12763;55.802;37.404;2023-07-02T12:46:41;6.30;;;3.28;;
24619;SDS011;12763;55.802;37.404;2023-07-02T12:49:07;3.60;;;3.05;;
24619;SDS011;12763;55.802;37.404;2023-07-02T12:51:33;6.95;;;3.83;;
24619;SDS011;12763;55.802;37.404;2023-07-02T12:53:59;7.93;;;2.88;;
24619;SDS011;12763;55.802;37.404;2023-07-02T12:56:25;4.75;;;3.30;;
24619;SDS011;12763;55.802;37.404;2023-07-02T12:58:51;7.28;;;3.70;;
24619;SDS011;12763;55.802;37.404;2023-07-02T13:01:17;6.65;;;3.50;;
24619;SDS011;12763;55.802;37.404;2023-07-02T13:03:46;6.88;;;3.78;;
24619;SDS011;12763;55.802;37.404;2023-07-02T13:06:13;7.82;;;3.50;;
24619;SDS011;12763;55.802;37.404;2023-07-02T13:08:39;7.22;;;3.30;;
24619;SDS011;12763;55.802;37.404;2023-07-02T13:11:06;6.65;;;3.58;;
24619;SDS011;12763;55.802;37.404;2023-07-02T13:13:33;9.50;;;4.13;;
24619;SDS011;12763;55.802;37.404;2023-07-02T13:16:01;8.05;;;3.55;;
24619;SDS011;12763;55.802;37.404;2023-07-02T13:18:28;7.53;;;3.55;;
24619;SDS011;12763;55.802;37.404;2023-07-02T13:20:53;5.78;;;3.40;;
24619;SDS011;12763;55.802;37.404;2023-07-02T13:23:19;6.00;;;3.58;;
24619;SDS011;12763;55.802;37.404;2023-07-02T13:25:45;5.90;;;3.63;;
24619;SDS011;12763;55.802;37.404;2023-07-02T13:28:11;5.38;;;3.50;;
24619;SDS011;12763;55.802;37.404;2023-07-02T13:30:37;6.43;;;3.63;;
24619;SDS011;12763;55.802;37.404;2023-07-02T13:33:03;5.53;;;3.42;;
24619;SDS011;12763;55.802;37.404;2023-07-02T13:35:29;8.90;;;3.50;;
24619;SDS011;12763;55.802;37.404;2023-07-02T13:37:54;6.07;;;3.83;;
24619;SDS011;12763;55.802;37.404;2023-07-02T13:40:20;7.90;;;3.67;;
24619;SDS011;12763;55.802;37.404;2023-07-02T13:42:46;8.55;;;3.40;;
24619;SDS011;12763;55.802;37.404;2023-07-02T13:45:12;4.60;;;3.10;;
24619;SDS011;12763;55.802;37.404;2023-07-02T13:47:38;6.90;;;3.50;;
24619;SDS011;12763;55.802;37.404;2023-07-02T13:50:04;6.85;;;3.72;;
24619;SDS011;12763;55.802;37.404;2023-07-02T13:52:30;4.95;;;3.22;;
24619;SDS011;12763;55.802;37.404;2023-07-02T13:54:56;5.65;;;3.47;;
24619;SDS011;12763;55.802;37.404;2023-07-02T13:57:24;4.65;;;3.42;;
24619;SDS011;12763;55.802;37.404;2023-07-02T13:59:50;7.45;;;3.53;;
24619;SDS011;12763;55.802;37.404;2023-07-02T14:02:15;7.80;;;3.35;;
24619;SDS011;12763;55.802;37.404;2023-07-02T14:04:42;5.30;;;3.80;;
24619;SDS011;12763;55.802;37.404;2023-07-02T14:07:08;5.00;;;3.53;;
24619;SDS011;12763;55.802;37.404;2023-07-02T14:09:33;5.53;;;3.17;;
24619;SDS011;12763;55.802;37.404;2023-07-02T14:11:59;6.05;;;3.60;;
24619;SDS011;12763;55.802;37.404;2023-07-02T14:14:25;7.65;;;4.38;;
24619;SDS011;12763;55.802;37.404;2023-07-02T14:16:51;6.55;;;4.03;;
24619;SDS011;12763;55.802;37.404;2023-07-02T14:19:16;6.25;;;3.88;;
24619;SDS011;12763;55.802;37.404;2023-07-02T14:21:42;6.65;;;3.60;;
24619;SDS011;12763;55.802;37.404;2023-07-02T14:24:08;6.78;;;3.83;;
24619;SDS011;12763;55.802;37.404;2023-07-02T14:26:34;8.70;;;4.32;;
24619;SDS011;12763;55.802;37.404;2023-07-02T14:29:00;7.47;;;4.45;;
24619;SDS011;12763;55.802;37.404;2023-07-02T14:31:26;8.95;;;4.65;;
24619;SDS011;12763;55.802;37.404;2023-07-02T14:33:52;6.40;;;3.90;;